Time;durP1;ratioP1;P1;durP2;ratioP2;P2;SDS_P1;SDS_P2;PMS_P1;PMS_P2;Temp;Humidity;BMP_temperature;BMP_pressure;BME280_temperature;BME280_humidity;BME280_pressure;Samples;Min_cycle;Max_cycle;Signal;HPM_P1;HPM_P2
2024/03/19 00:01:00;;;;;;;9.60;6.05;;;;;;;3.55;100.00;98677.47;6108730;19;20007;-70
2024/03/19 00:03:01;;;;;;;12.13;6.07;;;;;;;3.52;100.00;98675.41;6109659;19;20013;-70
2024/03/19 00:05:01;;;;;;;9.57;5.57;;;;;;;3.50;100.00;98683.13;6108568;19;20437;-70
2024/03/19 00:07:02;;;;;;;11.40;5.80;;;;;;;3.46;100.00;98682.97;6108007;19;20505;-70
2024/03/19 00:09:07;;;;;;;10.15;5.80;;;;;;;3.44;100.00;98687.97;6108625;19;19999;-71
2024/03/19 00:11:08;;;;;;;9.98;5.03;;;;;;;3.37;100.00;98687.66;6108577;19;20006;-70
2024/03/19 00:13:08;;;;;;;10.98;5.43;;;;;;;3.35;100.00;98689.94;6109483;19;20018;-70
2024/03/19 00:15:09;;;;;;;11.75;6.20;;;;;;;3.27;100.00;98698.94;6107457;19;19999;-70
2024/03/19 00:17:09;;;;;;;11.15;6.35;;;;;;;3.22;100.00;98690.91;6108124;19;20002;-70
2024/03/19 00:19:09;;;;;;;9.85;6.07;;;;;;;3.17;100.00;98693.81;6108654;19;20003;-70
2024/03/19 00:21:10;;;;;;;10.90;6.57;;;;;;;3.14;100.00;98699.94;6107015;19;20009;-70
2024/03/19 00:23:10;;;;;;;10.38;6.18;;;;;;;3.09;100.00;98700.91;6109410;19;20358;-70
2024/03/19 00:25:11;;;;;;;10.07;7.32;;;;;;;3.06;100.00;98693.34;6108815;19;20009;-70
2024/03/19 00:27:12;;;;;;;9.38;5.65;;;;;;;2.98;100.00;98694.97;6107367;19;20010;-70
2024/03/19 00:29:12;;;;;;;12.50;6.93;;;;;;;2.89;100.00;98696.09;6104927;19;20009;-70
2024/03/19 00:31:12;;;;;;;10.43;6.35;;;;;;;2.78;100.00;98695.63;6108786;19;20003;-70
2024/03/19 00:33:13;;;;;;;10.93;6.38;;;;;;;2.67;100.00;98697.06;6108608;19;20504;-70
2024/03/19 00:35:13;;;;;;;11.40;6.03;;;;;;;2.59;100.00;98695.94;6108460;19;20328;-70
2024/03/19 00:37:13;;;;;;;13.90;6.45;;;;;;;2.53;100.00;98689.00;6107704;19;20009;-70
2024/03/19 00:39:13;;;;;;;13.30;7.03;;;;;;;2.44;100.00;98685.47;6107660;19;20013;-71
2024/03/19 00:41:14;;;;;;;11.20;6.75;;;;;;;2.44;100.00;98680.00;6108214;19;20018;-70
2024/03/19 00:43:14;;;;;;;11.63;5.55;;;;;;;2.41;100.00;98680.66;6109097;19;20007;-71
2024/03/19 00:45:14;;;;;;;9.27;5.35;;;;;;;2.38;100.00;98682.06;6107259;19;20022;-72
2024/03/19 00:47:15;;;;;;;9.30;5.53;;;;;;;2.37;100.00;98688.66;6107369;19;20014;-70
2024/03/19 00:49:15;;;;;;;10.95;5.90;;;;;;;2.39;100.00;98688.34;6104506;19;20062;-70
2024/03/19 00:51:15;;;;;;;10.82;6.47;;;;;;;2.41;100.00;98694.31;6106499;19;20006;-70
2024/03/19 00:53:16;;;;;;;13.13;6.57;;;;;;;2.40;100.00;98690.78;6107805;19;20702;-70
2024/03/19 00:55:16;;;;;;;10.90;5.78;;;;;;;2.35;100.00;98699.09;6107455;19;20388;-71
2024/03/19 00:57:16;;;;;;;14.43;6.22;;;;;;;2.34;100.00;98700.22;6106909;19;20006;-72
2024/03/19 00:59:17;;;;;;;10.13;6.13;;;;;;;2.31;100.00;98703.56;6107705;19;20009;-71
2024/03/19 01:01:17;;;;;;;12.43;6.07;;;;;;;2.25;100.00;98697.50;6107082;19;20043;-72
2024/03/19 01:03:20;;;;;;;9.13;6.30;;;;;;;2.23;100.00;98705.19;6108389;19;20011;-70
2024/03/19 01:05:21;;;;;;;9.43;5.80;;;;;;;2.23;100.00;98705.19;6107702;19;20025;-71
2024/03/19 01:07:21;;;;;;;9.35;5.72;;;;;;;2.23;100.00;98707.09;6106260;19;20463;-71
2024/03/19 01:09:22;;;;;;;11.45;6.25;;;;;;;2.19;100.00;98708.88;6105490;19;20022;-71
2024/03/19 01:11:22;;;;;;;9.25;5.25;;;;;;;2.20;100.00;98697.63;6108082;19;20017;-71
2024/03/19 01:13:23;;;;;;;11.88;5.95;;;;;;;2.22;100.00;98703.56;6106802;19;20027;-72
2024/03/19 01:15:24;;;;;;;15.80;6.03;;;;;;;2.19;100.00;98692.50;6107144;19;20016;-71
2024/03/19 01:17:24;;;;;;;9.45;5.57;;;;;;;2.18;100.00;98697.16;6106400;19;20517;-71
2024/03/19 01:19:24;;;;;;;6.97;5.55;;;;;;;2.19;100.00;98704.22;6107113;19;20014;-71
2024/03/19 01:21:25;;;;;;;8.80;5.25;;;;;;;2.16;100.00;98693.94;6106750;19;20018;-72
2024/03/19 01:23:26;;;;;;;9.15;5.63;;;;;;;2.18;100.00;98694.41;6107377;19;20338;-72
2024/03/19 01:25:26;;;;;;;9.40;5.53;;;;;;;2.21;100.00;98709.34;6106648;19;20015;-71
2024/03/19 01:27:27;;;;;;;11.10;6.15;;;;;;;2.20;100.00;98699.56;6105444;19;20018;-72
2024/03/19 01:29:27;;;;;;;7.65;4.65;;;;;;;2.18;100.00;98697.16;6106270;19;20015;-72
2024/03/19 01:31:28;;;;;;;10.32;5.95;;;;;;;2.20;100.00;98696.81;6107702;19;20014;-72
2024/03/19 01:33:29;;;;;;;9.75;5.57;;;;;;;2.19;100.00;98696.03;6106587;19;20034;-72
2024/03/19 01:35:30;;;;;;;10.68;6.07;;;;;;;2.22;100.00;98695.38;6105686;19;20460;-72
2024/03/19 01:37:30;;;;;;;8.80;6.03;;;;;;;2.21;100.00;98693.75;6105570;19;20317;-71
2024/03/19 01:39:32;;;;;;;10.27;6.22;;;;;;;2.21;100.00;98690.22;6106794;19;20011;-72
2024/03/19 01:41:32;;;;;;;10.52;6.22;;;;;;;2.21;100.00;98695.69;6106907;19;20013;-71
2024/03/19 01:43:32;;;;;;;9.90;5.50;;;;;;;2.21;100.00;98696.50;6105845;19;20380;-71
2024/03/19 01:45:33;;;;;;;9.73;5.47;;;;;;;2.17;100.00;98692.00;6106239;19;20035;-71
2024/03/19 01:47:36;;;;;;;9.27;5.15;;;;;;;2.16;100.00;98690.41;6104874;19;20495;-71
2024/03/19 01:49:37;;;;;;;10.55;6.03;;;;;;;2.15;100.00;98705.16;6105501;19;20084;-72
2024/03/19 01:51:39;;;;;;;10.20;6.13;;;;;;;2.12;100.00;98703.88;6104026;19;20023;-72
2024/03/19 01:53:40;;;;;;;10.52;5.90;;;;;;;2.12;100.00;98692.13;6106670;19;20006;-71
2024/03/19 01:55:40;;;;;;;8.48;5.80;;;;;;;2.09;100.00;98688.13;6105146;19;20040;-71
2024/03/19 01:57:43;;;;;;;9.45;6.00;;;;;;;2.11;100.00;98698.72;6104791;19;20010;-71
2024/03/19 01:59:43;;;;;;;11.90;6.68;;;;;;;2.14;100.00;98685.22;6106208;19;20488;-71
2024/03/19 02:01:44;;;;;;;11.27;6.35;;;;;;;2.17;100.00;98695.53;6110458;19;20007;-71
2024/03/19 02:03:45;;;;;;;11.13;6.10;;;;;;;2.19;100.00;98697.94;6111372;19;20078;-71
2024/03/19 02:05:46;;;;;;;9.65;6.22;;;;;;;2.18;100.00;98697.16;6109654;19;20546;-71
2024/03/19 02:07:47;;;;;;;10.60;6.28;;;;;;;2.17;100.00;98690.09;6111440;19;20010;-72
2024/03/19 02:09:49;;;;;;;9.82;6.25;;;;;;;2.13;100.00;98694.53;6102307;19;20017;-72
2024/03/19 02:11:49;;;;;;;9.20;5.43;;;;;;;2.10;100.00;98692.47;6111103;19;20494;-72
2024/03/19 02:13:50;;;;;;;10.13;5.45;;;;;;;2.06;100.00;98688.75;6111400;19;20014;-72
2024/03/19 02:15:50;;;;;;;7.57;5.78;;;;;;;2.02;100.00;98687.78;6109933;19;20018;-72
2024/03/19 02:17:51;;;;;;;11.70;6.28;;;;;;;2.00;100.00;98683.78;6110907;19;20013;-72
2024/03/19 02:19:51;;;;;;;12.98;6.63;;;;;;;1.96;100.00;98689.84;6111161;19;20038;-72
2024/03/19 02:21:52;;;;;;;11.57;6.00;;;;;;;1.94;100.00;98683.09;6111834;19;20465;-72
2024/03/19 02:23:59;;;;;;;11.75;6.07;;;;;;;1.90;100.00;98688.41;6111335;19;20030;-72
2024/03/19 02:25:59;;;;;;;10.63;6.15;;;;;;;1.89;100.00;98683.22;6108026;19;20010;-72
2024/03/19 02:28:00;;;;;;;10.82;6.45;;;;;;;1.88;100.00;98684.34;6109905;19;20083;-72
2024/03/19 02:30:00;;;;;;;11.00;6.18;;;;;;;1.85;100.00;98680.34;6110082;19;20534;-72
2024/03/19 02:32:00;;;;;;;11.90;6.50;;;;;;;1.84;100.00;98680.66;6111197;19;20017;-72
2024/03/19 02:34:01;;;;;;;13.13;7.00;;;;;;;1.87;100.00;98677.28;6110747;19;20081;-71
2024/03/19 02:36:01;;;;;;;13.18;6.25;;;;;;;1.90;100.00;98671.19;6108895;19;20002;-71
2024/03/19 02:38:01;;;;;;;10.50;5.80;;;;;;;1.93;100.00;98682.31;6110872;19;19998;-71
2024/03/19 02:40:05;;;;;;;11.40;6.45;;;;;;;1.95;100.00;98671.06;6109452;19;20062;-71
2024/03/19 02:42:05;;;;;;;10.95;5.90;;;;;;;1.98;100.00;98673.94;6110098;19;20006;-71
2024/03/19 02:44:06;;;;;;;13.40;6.13;;;;;;;2.05;100.00;98664.50;6108552;19;20396;-71
2024/03/19 02:46:06;;;;;;;10.45;5.72;;;;;;;2.10;100.00;98667.09;6109125;19;20006;-72
2024/03/19 02:48:07;;;;;;;13.60;6.18;;;;;;;2.07;100.00;98665.81;6109348;19;20328;-72
2024/03/19 02:50:07;;;;;;;16.05;7.00;;;;;;;2.07;100.00;98657.63;6108904;19;20006;-72
2024/03/19 02:52:10;;;;;;;17.45;7.45;;;;;;;2.13;100.00;98661.00;6108631;19;20626;-72
2024/03/19 02:54:11;;;;;;;15.20;7.35;;;;;;;2.12;100.00;98670.31;6110230;19;20010;-72
2024/03/19 02:56:11;;;;;;;15.73;7.10;;;;;;;2.10;100.00;98661.63;6108391;19;20441;-72
2024/03/19 02:58:11;;;;;;;14.20;6.40;;;;;;;2.13;100.00;98661.78;6109874;19;20006;-71
2024/03/19 03:00:12;;;;;;;13.90;6.90;;;;;;;2.21;100.00;98665.66;6110105;19;20016;-71
2024/03/19 03:02:13;;;;;;;11.88;6.88;;;;;;;2.24;100.00;98665.03;6110464;19;20006;-71
2024/03/19 03:04:14;;;;;;;12.48;6.75;;;;;;;2.23;100.00;98664.25;6109903;19;20503;-71
2024/03/19 03:06:14;;;;;;;12.38;6.97;;;;;;;2.24;100.00;98654.94;6109319;19;20605;-71
2024/03/19 03:08:15;;;;;;;15.10;6.97;;;;;;;2.30;100.00;98657.50;6109271;19;20011;-71
2024/03/19 03:10:16;;;;;;;13.57;7.50;;;;;;;2.33;100.00;98660.41;6103396;19;20003;-71
2024/03/19 03:12:16;;;;;;;12.05;6.68;;;;;;;2.30;100.00;98673.88;6100940;19;20035;-71
2024/03/19 03:14:16;;;;;;;12.88;6.57;;;;;;;2.29;100.00;98675.78;6102775;19;19998;-71
2024/03/19 03:16:17;;;;;;;11.82;7.07;;;;;;;2.28;100.00;98678.84;6100769;19;20014;-71
2024/03/19 03:18:17;;;;;;;11.85;6.43;;;;;;;2.25;100.00;98672.13;6102140;19;20458;-71
2024/03/19 03:20:17;;;;;;;11.93;7.10;;;;;;;2.25;100.00;98675.66;6102979;19;20014;-71
2024/03/19 03:22:18;;;;;;;12.77;7.05;;;;;;;2.28;100.00;98679.66;6102868;19;20072;-71
2024/03/19 03:24:19;;;;;;;11.13;6.40;;;;;;;2.27;100.00;98677.25;6102222;19;20003;-71
2024/03/19 03:26:20;;;;;;;12.07;5.50;;;;;;;2.27;100.00;98675.31;6101221;19;20009;-72
2024/03/19 03:28:20;;;;;;;10.52;6.57;;;;;;;2.27;100.00;98679.97;6101854;19;20207;-72
2024/03/19 03:30:21;;;;;;;12.73;6.20;;;;;;;2.30;100.00;98679.34;6102771;19;20018;-72
2024/03/19 03:32:21;;;;;;;9.65;6.15;;;;;;;2.30;100.00;98684.78;6102408;19;20037;-72
2024/03/19 03:34:22;;;;;;;12.15;6.30;;;;;;;2.22;100.00;98687.19;6102099;19;20451;-72
2024/03/19 03:36:23;;;;;;;9.32;5.82;;;;;;;2.18;100.00;98688.94;6100420;19;20014;-72
2024/03/19 03:38:24;;;;;;;11.65;5.60;;;;;;;2.20;100.00;98688.63;6101662;19;20014;-72
2024/03/19 03:40:24;;;;;;;10.57;5.78;;;;;;;2.20;100.00;98689.44;6102980;19;20648;-72
2024/03/19 03:42:25;;;;;;;9.18;6.00;;;;;;;2.25;100.00;98694.75;6102944;19;20017;-71
2024/03/19 03:44:25;;;;;;;9.75;5.88;;;;;;;2.30;100.00;98684.78;6102450;19;20021;-71
2024/03/19 03:46:25;;;;;;;10.50;6.00;;;;;;;2.30;100.00;98698.44;6101697;19;20078;-72
2024/03/19 03:48:26;;;;;;;10.85;6.57;;;;;;;2.27;100.00;98699.09;6101267;19;20064;-72
2024/03/19 03:50:26;;;;;;;9.57;6.00;;;;;;;2.24;100.00;98689.63;6099977;19;20037;-72
2024/03/19 03:52:29;;;;;;;10.18;6.25;;;;;;;2.27;100.00;98683.50;6101733;19;20011;-72
2024/03/19 03:54:29;;;;;;;13.75;6.47;;;;;;;2.27;100.00;98699.09;6102925;19;20022;-72
2024/03/19 03:56:30;;;;;;;12.35;6.68;;;;;;;2.24;100.00;98690.41;6100936;19;20098;-72
2024/03/19 03:58:30;;;;;;;9.00;5.68;;;;;;;2.24;100.00;98692.34;6102669;19;20947;-72
2024/03/19 04:00:33;;;;;;;15.77;7.60;;;;;;;2.27;100.00;98688.97;6102256;19;20018;-72
2024/03/19 04:02:33;;;;;;;9.73;6.15;;;;;;;2.29;100.00;98694.09;6101885;19;20015;-72
2024/03/19 04:04:33;;;;;;;11.75;6.63;;;;;;;2.31;100.00;98698.13;6101680;19;20022;-72
2024/03/19 04:06:33;;;;;;;10.38;5.95;;;;;;;2.32;100.00;98691.56;6100304;19;20348;-72
2024/03/19 04:08:34;;;;;;;11.50;6.40;;;;;;;2.32;100.00;98696.19;6101197;19;20046;-72
2024/03/19 04:10:34;;;;;;;12.02;6.20;;;;;;;2.24;100.00;98701.34;6105800;19;20018;-71
2024/03/19 04:12:35;;;;;;;12.13;6.15;;;;;;;2.21;100.00;98698.44;6108583;19;20007;-71
2024/03/19 04:14:36;;;;;;;12.57;7.10;;;;;;;2.21;100.00;98695.69;6107074;19;20010;-71
2024/03/19 04:16:36;;;;;;;12.15;5.82;;;;;;;2.21;100.00;98696.50;6106705;19;20082;-71
2024/03/19 04:18:36;;;;;;;11.38;6.22;;;;;;;2.21;100.00;98704.69;6108156;19;20070;-72
2024/03/19 04:20:37;;;;;;;13.40;7.35;;;;;;;2.21;100.00;98701.16;6107936;19;20010;-72
2024/03/19 04:22:38;;;;;;;10.80;6.03;;;;;;;2.19;100.00;98698.75;6108340;19;20018;-72
2024/03/19 04:24:38;;;;;;;10.68;5.88;;;;;;;2.17;100.00;98701.00;6107306;19;20006;-71
2024/03/19 04:26:39;;;;;;;12.50;5.65;;;;;;;2.18;100.00;98705.34;6105174;19;20043;-71
2024/03/19 04:28:39;;;;;;;8.75;5.57;;;;;;;2.21;100.00;98699.22;6107148;19;20482;-72
2024/03/19 04:30:39;;;;;;;10.75;6.40;;;;;;;2.23;100.00;98704.38;6107158;19;20005;-71
2024/03/19 04:32:40;;;;;;;10.07;6.40;;;;;;;2.25;100.00;98705.69;6107399;19;20046;-71
2024/03/19 04:34:41;;;;;;;12.10;6.65;;;;;;;2.31;100.00;98709.03;6107220;19;20334;-71
2024/03/19 04:36:41;;;;;;;11.32;7.22;;;;;;;2.31;100.00;98705.50;6104770;19;20014;-71
2024/03/19 04:38:41;;;;;;;11.35;7.03;;;;;;;2.30;100.00;98712.09;6106407;19;20519;-72
2024/03/19 04:40:42;;;;;;;11.52;6.68;;;;;;;2.30;100.00;98709.38;6106532;19;20023;-72
2024/03/19 04:42:42;;;;;;;12.77;5.97;;;;;;;2.30;100.00;98703.91;6106479;19;20002;-72
2024/03/19 04:44:43;;;;;;;10.82;6.70;;;;;;;2.28;100.00;98704.22;6106137;19;20002;-72
2024/03/19 04:46:44;;;;;;;11.32;6.00;;;;;;;2.28;100.00;98711.63;6104564;19;20003;-72
2024/03/19 04:48:45;;;;;;;12.07;7.25;;;;;;;2.27;100.00;98721.72;6107256;19;20007;-71
2024/03/19 04:50:45;;;;;;;12.38;6.68;;;;;;;2.28;100.00;98714.34;6103773;19;20448;-71
2024/03/19 04:52:45;;;;;;;12.27;6.60;;;;;;;2.27;100.00;98719.00;6106699;19;20010;-71
2024/03/19 04:54:45;;;;;;;10.45;6.45;;;;;;;2.31;100.00;98711.78;6106226;19;20030;-71
2024/03/19 04:56:46;;;;;;;10.98;6.63;;;;;;;2.34;100.00;98724.00;6105109;19;20013;-71
2024/03/19 04:58:46;;;;;;;10.98;6.25;;;;;;;2.32;100.00;98716.13;6106138;19;20021;-71
2024/03/19 05:00:47;;;;;;;13.27;6.13;;;;;;;2.32;100.00;98710.69;6106583;19;20329;-71
2024/03/19 05:02:47;;;;;;;14.60;6.80;;;;;;;2.40;100.00;98725.44;6105844;19;20077;-71
2024/03/19 05:04:47;;;;;;;11.38;6.75;;;;;;;2.41;100.00;98716.16;6105694;19;20078;-71
2024/03/19 05:06:48;;;;;;;10.32;5.72;;;;;;;2.43;100.00;98722.09;6104097;19;20373;-71
2024/03/19 05:08:48;;;;;;;13.98;6.88;;;;;;;2.40;100.00;98726.28;6107083;19;20040;-71
2024/03/19 05:10:49;;;;;;;10.80;6.18;;;;;;;2.35;100.00;98722.88;6105448;19;20015;-72
2024/03/19 05:12:50;;;;;;;10.82;6.55;;;;;;;2.35;100.00;98725.59;6106212;19;20046;-71
2024/03/19 05:14:50;;;;;;;23.65;7.05;;;;;;;2.34;100.00;98724.00;6106063;19;20023;-71
2024/03/19 05:16:50;;;;;;;10.10;6.35;;;;;;;2.33;100.00;98725.94;6104535;19;20027;-72
2024/03/19 05:18:51;;;;;;;12.13;6.35;;;;;;;2.32;100.00;98735.25;6105653;19;20011;-71
2024/03/19 05:20:51;;;;;;;12.55;6.75;;;;;;;2.30;100.00;98736.66;6105633;19;20007;-71
2024/03/19 05:22:51;;;;;;;11.30;5.88;;;;;;;2.29;100.00;98737.78;6105429;19;20027;-71
2024/03/19 05:24:52;;;;;;;11.25;6.30;;;;;;;2.30;100.00;98742.13;6105322;19;20002;-71
2024/03/19 05:26:52;;;;;;;12.75;7.43;;;;;;;2.31;100.00;98738.28;6104329;19;20010;-71
2024/03/19 05:28:52;;;;;;;12.85;6.70;;;;;;;2.30;100.00;98737.47;6107237;19;20035;-71
2024/03/19 05:30:53;;;;;;;12.52;6.95;;;;;;;2.28;100.00;98730.72;6105593;19;20002;-71
2024/03/19 05:32:54;;;;;;;12.15;6.88;;;;;;;2.28;100.00;98738.91;6105351;19;20463;-71
2024/03/19 05:34:54;;;;;;;10.68;6.38;;;;;;;2.28;100.00;98742.44;6103086;19;20007;-71
2024/03/19 05:36:54;;;;;;;12.57;6.63;;;;;;;2.27;100.00;98740.03;6108650;19;20129;-71
2024/03/19 05:38:55;;;;;;;11.30;6.30;;;;;;;2.30;100.00;98742.13;6111332;19;20357;-71
2024/03/19 05:40:55;;;;;;;12.70;6.55;;;;;;;2.33;100.00;98738.78;6111944;19;20311;-71
2024/03/19 05:42:55;;;;;;;13.80;6.65;;;;;;;2.29;100.00;98735.88;6111143;19;20021;-71
2024/03/19 05:44:57;;;;;;;10.30;6.35;;;;;;;2.31;100.00;98725.41;6110213;19;20007;-71
2024/03/19 05:46:57;;;;;;;13.00;6.68;;;;;;;2.34;100.00;98733.00;6107810;19;20012;-71
2024/03/19 05:48:57;;;;;;;13.23;7.20;;;;;;;2.34;100.00;98735.72;6105656;19;20515;-71
2024/03/19 05:50:58;;;;;;;13.27;6.55;;;;;;;2.34;100.00;98729.47;6106394;19;20051;-71
2024/03/19 05:53:01;;;;;;;11.52;7.07;;;;;;;2.31;100.00;98739.06;6111253;19;20036;-71
2024/03/19 05:55:02;;;;;;;10.48;6.55;;;;;;;2.30;100.00;98732.00;6110304;19;19999;-71
2024/03/19 05:57:03;;;;;;;16.35;7.28;;;;;;;2.32;100.00;98731.69;6109754;19;20009;-71
2024/03/19 05:59:03;;;;;;;11.75;6.65;;;;;;;2.32;100.00;98729.78;6110883;19;20078;-71
2024/03/19 06:01:04;;;;;;;10.88;6.75;;;;;;;2.36;100.00;98727.22;6111122;19;20018;-71
2024/03/19 06:03:04;;;;;;;11.38;6.40;;;;;;;2.34;100.00;98726.72;6111736;19;20006;-71
2024/03/19 06:05:07;;;;;;;14.00;6.88;;;;;;;2.37;100.00;98732.34;6110302;19;20003;-71
2024/03/19 06:07:07;;;;;;;10.43;6.18;;;;;;;2.42;100.00;98734.16;6109527;19;20010;-71
2024/03/19 06:09:09;;;;;;;11.35;6.40;;;;;;;2.47;100.00;98728.50;6112940;19;20009;-71
2024/03/19 06:11:10;;;;;;;11.80;6.53;;;;;;;2.48;100.00;98727.38;6112346;19;20021;-71
2024/03/19 06:13:10;;;;;;;11.32;6.75;;;;;;;2.50;100.00;98727.91;6112012;19;20074;-71
2024/03/19 06:15:11;;;;;;;13.27;7.15;;;;;;;2.50;100.00;98734.16;6111382;19;20024;-71
2024/03/19 06:17:11;;;;;;;11.00;6.53;;;;;;;2.51;100.00;98735.75;6108125;19;20011;-71
2024/03/19 06:19:11;;;;;;;14.93;7.13;;;;;;;2.49;100.00;98729.03;6111015;19;20047;-71
2024/03/19 06:21:12;;;;;;;12.75;7.10;;;;;;;2.50;100.00;98734.16;6112069;19;20040;-71
2024/03/19 06:23:13;;;;;;;10.82;6.78;;;;;;;2.52;100.00;98731.09;6109799;19;20475;-71
2024/03/19 06:25:13;;;;;;;12.80;6.63;;;;;;;2.51;100.00;98732.22;6110416;19;20062;-71
2024/03/19 06:27:13;;;;;;;12.52;6.57;;;;;;;2.51;100.00;98730.31;6110189;19;20011;-71
2024/03/19 06:29:14;;;;;;;10.45;6.50;;;;;;;2.54;100.00;98739.78;6111468;19;20007;-71
2024/03/19 06:31:15;;;;;;;11.50;7.05;;;;;;;2.53;100.00;98730.78;6110823;19;20007;-71
2024/03/19 06:33:15;;;;;;;10.85;6.80;;;;;;;2.55;100.00;98735.91;6110005;19;20035;-71
2024/03/19 06:35:16;;;;;;;12.15;7.43;;;;;;;2.56;100.00;98728.53;6109452;19;20011;-71
2024/03/19 06:37:16;;;;;;;10.90;7.13;;;;;;;2.56;100.00;98731.25;6106893;19;20010;-71
2024/03/19 06:39:16;;;;;;;11.85;6.50;;;;;;;2.60;100.00;98735.78;6109133;19;20343;-71
2024/03/19 06:41:16;;;;;;;13.63;6.80;;;;;;;2.63;100.00;98732.41;6111806;19;20017;-71
2024/03/19 06:43:17;;;;;;;15.95;7.03;;;;;;;2.64;100.00;98731.28;6111978;19;20003;-71
2024/03/19 06:45:17;;;;;;;11.10;6.90;;;;;;;2.65;100.00;98726.59;6110492;19;20006;-71
2024/03/19 06:47:18;;;;;;;11.63;7.10;;;;;;;2.67;100.00;98747.03;6105824;19;20013;-71
2024/03/19 06:49:18;;;;;;;22.13;9.57;;;;;;;2.68;100.00;98742.38;6109784;19;20010;-71
2024/03/19 06:51:19;;;;;;;15.90;7.55;;;;;;;2.69;100.00;98743.97;6102638;19;20006;-71
2024/03/19 06:53:21;;;;;;;13.68;7.22;;;;;;;2.73;100.00;98748.50;6103481;19;20013;-71
2024/03/19 06:55:22;;;;;;;15.15;8.93;;;;;;;2.75;100.00;98748.19;6105487;19;20066;-71
2024/03/19 06:57:22;;;;;;;15.48;8.18;;;;;;;2.79;100.00;98755.41;6109964;19;20011;-71
2024/03/19 06:59:24;;;;;;;13.85;8.30;;;;;;;2.84;100.00;98754.44;6109276;19;20372;-71
2024/03/19 07:01:26;;;;;;;15.57;9.82;;;;;;;2.86;100.00;98754.94;6109343;19;20011;-71
2024/03/19 07:03:26;;;;;;;24.73;9.20;;;;;;;2.92;100.00;98761.06;6110008;19;20037;-71
2024/03/19 07:05:29;;;;;;;23.70;9.07;;;;;;;3.01;100.00;98767.31;6110358;19;20010;-71
2024/03/19 07:07:29;;;;;;;23.55;9.70;;;;;;;3.06;100.00;98762.50;6108709;19;20401;-71
2024/03/19 07:09:31;;;;;;;13.52;8.00;;;;;;;3.10;100.00;98768.13;6099172;19;20003;-71
2024/03/19 07:11:31;;;;;;;15.40;8.48;;;;;;;3.14;100.00;98771.00;6108961;19;20007;-71
2024/03/19 07:13:32;;;;;;;14.73;7.40;;;;;;;3.18;100.00;98764.59;6110421;19;20422;-71
2024/03/19 07:15:32;;;;;;;11.30;7.20;;;;;;;3.24;100.00;98763.31;6108220;19;19999;-71
2024/03/19 07:17:33;;;;;;;14.85;7.63;;;;;;;3.30;100.00;98770.19;6108240;19;20494;-71
2024/03/19 07:19:33;;;;;;;13.00;7.30;;;;;;;3.34;100.00;98767.63;6109239;19;20021;-71
2024/03/19 07:21:34;;;;;;;16.70;8.68;;;;;;;3.42;100.00;98774.22;6110044;19;20026;-71
2024/03/19 07:23:35;;;;;;;18.60;8.50;;;;;;;3.48;100.00;98779.22;6110004;19;20440;-71
2024/03/19 07:25:35;;;;;;;13.88;8.00;;;;;;;3.49;100.00;98775.34;6108082;19;20087;-71
2024/03/19 07:27:42;;;;;;;22.83;10.05;;;;;;;3.53;100.00;98775.50;6108723;19;19999;-71
2024/03/19 07:29:42;;;;;;;15.48;8.55;;;;;;;3.59;100.00;98774.19;6109140;19;20363;-71
2024/03/19 07:31:44;;;;;;;16.83;8.82;;;;;;;3.64;100.00;98779.47;6108731;19;20002;-71
2024/03/19 07:33:44;;;;;;;16.48;9.07;;;;;;;3.67;100.00;98787.06;6108937;19;20474;-71
2024/03/19 07:35:44;;;;;;;13.20;7.70;;;;;;;3.75;100.00;98782.72;6106640;19;20138;-71
2024/03/19 07:37:45;;;;;;;13.85;8.10;;;;;;;3.79;100.00;98792.66;6109020;19;20021;-71
2024/03/19 07:39:45;;;;;;;16.60;8.30;;;;;;;3.84;100.00;98787.03;6108691;19;20002;-71
2024/03/19 07:41:45;;;;;;;12.38;8.07;;;;;;;3.93;100.00;98787.00;6110411;19;20475;-72
2024/03/19 07:43:46;;;;;;;34.20;13.77;;;;;;;4.02;100.00;98792.44;6109634;19;20001;-71
2024/03/19 07:45:46;;;;;;;19.25;10.48;;;;;;;4.08;100.00;98797.44;6105011;19;20006;-71
2024/03/19 07:47:48;;;;;;;16.70;9.48;;;;;;;4.15;100.00;98785.97;6109115;19;20007;-71
2024/03/19 07:49:48;;;;;;;14.52;9.20;;;;;;;4.21;100.00;98801.88;6110090;19;21476;-71
2024/03/19 07:51:48;;;;;;;14.90;8.82;;;;;;;4.28;100.00;98795.88;6106337;19;20011;-71
2024/03/19 07:53:49;;;;;;;16.17;10.40;;;;;;;4.35;100.00;98798.13;6108588;19;20036;-71
2024/03/19 07:55:49;;;;;;;20.40;10.20;;;;;;;4.39;100.00;98799.88;6105306;19;20384;-71
2024/03/19 07:57:50;;;;;;;14.90;10.07;;;;;;;4.46;100.00;98786.44;6102149;19;20006;-72
2024/03/19 07:59:52;;;;;;;15.70;8.85;;;;;;;4.56;100.00;98792.72;6104898;19;20010;-71
2024/03/19 08:01:53;;;;;;;16.77;9.85;;;;;;;4.63;100.00;98792.97;6108089;19;20349;-71
2024/03/19 08:03:54;;;;;;;15.38;8.98;;;;;;;4.75;100.00;98798.56;6106125;19;20077;-71
2024/03/19 08:06:07;;;;;;;15.40;8.82;;;;;;;4.82;100.00;98801.59;6107070;19;20635;-72
2024/03/19 08:08:07;;;;;;;14.38;8.65;;;;;;;4.91;100.00;98799.59;6108632;19;20010;-72
2024/03/19 08:10:08;;;;;;;17.33;9.25;;;;;;;4.97;100.00;98803.75;6102777;19;20405;-71
2024/03/19 08:12:08;;;;;;;12.65;8.15;;;;;;;5.11;100.00;98811.69;6101131;19;20006;-72
2024/03/19 08:14:08;;;;;;;16.25;9.32;;;;;;;5.26;100.00;98813.84;6101762;19;20675;-72
2024/03/19 08:16:09;;;;;;;16.80;8.73;;;;;;;5.31;100.00;98810.13;6099992;19;20368;-72
2024/03/19 08:18:09;;;;;;;18.20;9.07;;;;;;;5.36;100.00;98812.63;6101491;19;20010;-71
2024/03/19 08:20:12;;;;;;;16.38;8.65;;;;;;;5.40;100.00;98805.34;6102551;19;20035;-71
2024/03/19 08:22:13;;;;;;;15.45;9.38;;;;;;;5.54;100.00;98808.59;6101667;19;20393;-71
2024/03/19 08:24:13;;;;;;;13.05;8.32;;;;;;;5.61;100.00;98802.56;6101683;19;20003;-71
2024/03/19 08:26:17;;;;;;;15.13;8.98;;;;;;;5.62;100.00;98813.22;6101432;19;20003;-71
2024/03/19 08:28:18;;;;;;;17.25;9.23;;;;;;;5.72;100.00;98822.19;6101419;19;20373;-71
2024/03/19 08:30:21;;;;;;;15.50;9.15;;;;;;;5.74;100.00;98817.16;6100969;19;20036;-71
2024/03/19 08:32:22;;;;;;;14.50;8.15;;;;;;;5.78;100.00;98820.81;6101299;19;20007;-71
2024/03/19 08:34:22;;;;;;;16.60;10.05;;;;;;;5.84;100.00;98824.97;6102228;19;20557;-72
2024/03/19 08:36:22;;;;;;;15.20;9.00;;;;;;;5.93;100.00;98828.47;6100251;19;20006;-72
2024/03/19 08:38:23;;;;;;;16.58;8.90;;;;;;;6.04;100.00;98832.41;6101770;19;20006;-72
2024/03/19 08:40:23;;;;;;;14.60;8.82;;;;;;;6.10;100.00;98830.22;6101972;19;20539;-72
2024/03/19 08:42:24;;;;;;;13.60;8.68;;;;;;;6.16;100.00;98829.69;6101755;19;20006;-71
2024/03/19 08:44:24;;;;;;;15.40;9.75;;;;;;;6.30;100.00;98832.13;6101413;19;20014;-71
2024/03/19 08:46:24;;;;;;;15.77;9.48;;;;;;;6.40;100.00;98834.41;6099586;19;20013;-71
2024/03/19 08:48:25;;;;;;;14.00;8.50;;;;;;;6.49;100.00;98826.06;6101109;19;20471;-71
2024/03/19 08:50:26;;;;;;;12.48;8.30;;;;;;;6.59;100.00;98830.31;6098684;19;20006;-71
2024/03/19 08:52:26;;;;;;;17.73;9.65;;;;;;;6.69;100.00;98832.59;6101441;19;20343;-71
2024/03/19 08:54:27;;;;;;;16.40;9.43;;;;;;;6.81;100.00;98843.59;6101253;19;20002;-71
2024/03/19 08:56:28;;;;;;;15.07;9.25;;;;;;;6.95;100.00;98835.81;6099549;19;20443;-71
2024/03/19 08:58:28;;;;;;;16.60;9.90;;;;;;;7.09;100.00;98829.13;6101759;19;20021;-71
2024/03/19 09:00:28;;;;;;;15.88;9.80;;;;;;;7.24;100.00;98839.44;6100278;19;20077;-71
2024/03/19 09:02:29;;;;;;;14.38;9.13;;;;;;;7.37;100.00;98834.72;6100683;19;20482;-71
2024/03/19 09:04:29;;;;;;;15.13;9.35;;;;;;;7.46;100.00;98835.38;6101908;19;20048;-72
2024/03/19 09:06:31;;;;;;;20.45;11.02;;;;;;;7.53;100.00;98830.03;6099830;19;20014;-72
2024/03/19 09:08:32;;;;;;;16.00;10.25;;;;;;;7.62;100.00;98821.66;6101159;19;20027;-72
2024/03/19 09:10:33;;;;;;;14.98;9.35;;;;;;;7.68;100.00;98823.00;6106284;19;20011;-72
2024/03/19 09:12:34;;;;;;;11.45;8.00;;;;;;;7.79;100.00;98822.16;6113614;19;20083;-71
2024/03/19 09:14:34;;;;;;;15.35;9.38;;;;;;;7.97;100.00;98825.41;6113886;19;20010;-71
2024/03/19 09:16:34;;;;;;;13.88;9.25;;;;;;;8.09;100.00;98817.06;6111925;19;20369;-71
2024/03/19 09:18:34;;;;;;;15.38;9.02;;;;;;;8.17;100.00;98826.31;6113444;19;20014;-71
2024/03/19 09:20:35;;;;;;;17.77;9.85;;;;;;;8.34;100.00;98825.97;6113761;19;20006;-71
2024/03/19 09:22:35;;;;;;;16.15;8.63;;;;;;;8.49;100.00;98834.66;6113461;19;20016;-71